N818TW KSLC-KPVU
Flight info
| Callsign | N818TW |
|---|---|
| Flight time | 0h 18m |
| Altitude | VFR/055 |
| Route | |
| Aircraft | SR22/L-VGD/C |
Departure
| Time | 2026-04-24 22:58 |
|---|---|
| Airport | Salt Lake City International Airport (KSLC) |
Arrival
| Time | 2026-04-24 23:16 |
|---|---|
| Airport | Provo Municipal Airport (KPVU) |
| Time | Latitude | Longitude | Altitude | Speed | Heading |
|---|---|---|---|---|---|
| 2026-04-24 22:48 | 40.78626 | -111.95892 | 4229 ft | 0 kts | 220° |
| 2026-04-24 22:50 | 40.78625 | -111.95893 | 4228 ft | 0 kts | 220° |
| 2026-04-24 22:50 | 40.78623 | -111.95894 | 4228 ft | 0 kts | 220° |
| 2026-04-24 22:51 | 40.78622 | -111.95896 | 4227 ft | 4 kts | 220° |
| 2026-04-24 22:51 | 40.78576 | -111.95920 | 4225 ft | 10 kts | 180° |
| 2026-04-24 22:51 | 40.78534 | -111.95980 | 4225 ft | 11 kts | 249° |
| 2026-04-24 22:52 | 40.78452 | -111.96002 | 4224 ft | 15 kts | 179° |
| 2026-04-24 22:52 | 40.78327 | -111.96002 | 4220 ft | 20 kts | 181° |
| 2026-04-24 22:52 | 40.78179 | -111.96004 | 4219 ft | 22 kts | 180° |
| 2026-04-24 22:52 | 40.78030 | -111.96003 | 4222 ft | 21 kts | 179° |
| 2026-04-24 22:53 | 40.77879 | -111.96007 | 4222 ft | 18 kts | 199° |
| 2026-04-24 22:53 | 40.77783 | -111.96066 | 4225 ft | 14 kts | 179° |
| 2026-04-24 22:53 | 40.77681 | -111.96064 | 4227 ft | 16 kts | 180° |
| 2026-04-24 22:53 | 40.77562 | -111.96064 | 4227 ft | 19 kts | 180° |
| 2026-04-24 22:54 | 40.77426 | -111.96062 | 4227 ft | 20 kts | 179° |
| 2026-04-24 22:54 | 40.77324 | -111.96064 | 4226 ft | 11 kts | 177° |
| 2026-04-24 22:54 | 40.77272 | -111.96130 | 4225 ft | 14 kts | 274° |
| 2026-04-24 22:54 | 40.77317 | -111.96258 | 4223 ft | 17 kts | 315° |
| 2026-04-24 22:55 | 40.77381 | -111.96326 | 4224 ft | 18 kts | 330° |
| 2026-04-24 22:55 | 40.77444 | -111.96367 | 4224 ft | 0 kts | 335° |
| 2026-04-24 22:55 | 40.77454 | -111.96363 | 4224 ft | 6 kts | 52° |
| 2026-04-24 22:55 | 40.77380 | -111.96312 | 4226 ft | 13 kts | 160° |
| 2026-04-24 22:56 | 40.77324 | -111.96254 | 4223 ft | 17 kts | 96° |
| 2026-04-24 22:56 | 40.77374 | -111.96208 | 4225 ft | 0 kts | 1° |
| 2026-04-24 22:57 | 40.77418 | -111.96210 | 4227 ft | 21 kts | 356° |
| 2026-04-24 22:57 | 40.77665 | -111.96215 | 4224 ft | 55 kts | 359° |
| 2026-04-24 22:58 | 40.78225 | -111.96225 | 4329 ft | 92 kts | 359° |
| 2026-04-24 22:58 | 40.78823 | -111.96240 | 4710 ft | 87 kts | 358° |
| 2026-04-24 22:58 | 40.79476 | -111.96114 | 4983 ft | 96 kts | 5° |
| 2026-04-24 22:58 | 40.80176 | -111.95864 | 5185 ft | 118 kts | 37° |
| 2026-04-24 22:59 | 40.80630 | -111.94939 | 5445 ft | 130 kts | 67° |
| 2026-04-24 22:59 | 40.80857 | -111.93681 | 5494 ft | 149 kts | 88° |
| 2026-04-24 22:59 | 40.79590 | -111.91574 | 5551 ft | 171 kts | 154° |
| 2026-04-24 23:00 | 40.78459 | -111.91054 | 5564 ft | 172 kts | 168° |
| 2026-04-24 23:00 | 40.77266 | -111.90929 | 5519 ft | 174 kts | 178° |
| 2026-04-24 23:00 | 40.76060 | -111.90733 | 5515 ft | 178 kts | 169° |
| 2026-04-24 23:00 | 40.74843 | -111.90443 | 5538 ft | 178 kts | 172° |
| 2026-04-24 23:01 | 40.73603 | -111.90311 | 5540 ft | 179 kts | 177° |
| 2026-04-24 23:01 | 40.72354 | -111.90245 | 5528 ft | 180 kts | 179° |
| 2026-04-24 23:01 | 40.71094 | -111.90170 | 5490 ft | 182 kts | 177° |
| 2026-04-24 23:01 | 40.69822 | -111.90068 | 5416 ft | 185 kts | 177° |
| 2026-04-24 23:02 | 40.68554 | -111.89984 | 5493 ft | 180 kts | 177° |
| 2026-04-24 23:02 | 40.67304 | -111.89912 | 5568 ft | 180 kts | 179° |
| 2026-04-24 23:02 | 40.66054 | -111.89904 | 5691 ft | 176 kts | 179° |
| 2026-04-24 23:02 | 40.64877 | -111.89859 | 6018 ft | 165 kts | 179° |
| 2026-04-24 23:03 | 40.63746 | -111.89798 | 6270 ft | 163 kts | 176° |
| 2026-04-24 23:03 | 40.62634 | -111.89684 | 6599 ft | 157 kts | 176° |
| 2026-04-24 23:03 | 40.61560 | -111.89516 | 6880 ft | 156 kts | 172° |
| 2026-04-24 23:03 | 40.60487 | -111.89300 | 7197 ft | 153 kts | 169° |
| 2026-04-24 23:04 | 40.59446 | -111.88995 | 7469 ft | 156 kts | 166° |
| 2026-04-24 23:04 | 40.58403 | -111.88567 | 7722 ft | 157 kts | 161° |
| 2026-04-24 23:04 | 40.57354 | -111.88137 | 7965 ft | 160 kts | 164° |
| 2026-04-24 23:04 | 40.56278 | -111.87727 | 8158 ft | 161 kts | 164° |
| 2026-04-24 23:05 | 40.55194 | -111.87321 | 8310 ft | 163 kts | 162° |
| 2026-04-24 23:05 | 40.54085 | -111.86982 | 8459 ft | 164 kts | 167° |
| 2026-04-24 23:05 | 40.52988 | -111.86609 | 8658 ft | 162 kts | 165° |
| 2026-04-24 23:05 | 40.51859 | -111.86187 | 8598 ft | 176 kts | 163° |
| 2026-04-24 23:06 | 40.50683 | -111.85666 | 8570 ft | 180 kts | 160° |
| 2026-04-24 23:06 | 40.49527 | -111.85020 | 8561 ft | 180 kts | 155° |
| 2026-04-24 23:06 | 40.48417 | -111.84303 | 8571 ft | 179 kts | 153° |
| 2026-04-24 23:06 | 40.47304 | -111.83525 | 8548 ft | 181 kts | 151° |
| 2026-04-24 23:07 | 40.46230 | -111.82720 | 8552 ft | 176 kts | 149° |
| 2026-04-24 23:07 | 40.45208 | -111.81851 | 8514 ft | 175 kts | 143° |
| 2026-04-24 23:07 | 40.44263 | -111.80861 | 8489 ft | 167 kts | 141° |
| 2026-04-24 23:07 | 40.43370 | -111.79893 | 8524 ft | 163 kts | 141° |
| 2026-04-24 23:08 | 40.42508 | -111.78946 | 8508 ft | 157 kts | 139° |
| 2026-04-24 23:08 | 40.41639 | -111.77977 | 8486 ft | 169 kts | 139° |
| 2026-04-24 23:08 | 40.40746 | -111.76983 | 8590 ft | 170 kts | 143° |
| 2026-04-24 23:08 | 40.39777 | -111.76081 | 8675 ft | 171 kts | 147° |
| 2026-04-24 23:09 | 40.38752 | -111.75304 | 8817 ft | 169 kts | 151° |
| 2026-04-24 23:09 | 40.37729 | -111.74451 | 8777 ft | 177 kts | 147° |
| 2026-04-24 23:09 | 40.36667 | -111.73641 | 8837 ft | 176 kts | 153° |
| 2026-04-24 23:09 | 40.35568 | -111.72952 | 8751 ft | 175 kts | 156° |
| 2026-04-24 23:10 | 40.34449 | -111.72307 | 8611 ft | 177 kts | 157° |
| 2026-04-24 23:10 | 40.33278 | -111.71712 | 8400 ft | 181 kts | 161° |
| 2026-04-24 23:10 | 40.32059 | -111.71241 | 8163 ft | 183 kts | 167° |
| 2026-04-24 23:10 | 40.30777 | -111.70982 | 7784 ft | 185 kts | 176° |
| 2026-04-24 23:11 | 40.29523 | -111.70933 | 7315 ft | 177 kts | 182° |
| 2026-04-24 23:11 | 40.28313 | -111.71061 | 6884 ft | 170 kts | 188° |
| 2026-04-24 23:11 | 40.27196 | -111.71271 | 6487 ft | 165 kts | 190° |
| 2026-04-24 23:11 | 40.26092 | -111.71527 | 6226 ft | 157 kts | 195° |
| 2026-04-24 23:12 | 40.25041 | -111.71766 | 5933 ft | 149 kts | 195° |
| 2026-04-24 23:12 | 40.24060 | -111.72058 | 5640 ft | 143 kts | 198° |
| 2026-04-24 23:12 | 40.23116 | -111.72337 | 5397 ft | 135 kts | 202° |
| 2026-04-24 23:12 | 40.22237 | -111.72614 | 5190 ft | 130 kts | 198° |
| 2026-04-24 23:13 | 40.21379 | -111.72843 | 5002 ft | 117 kts | 195° |
| 2026-04-24 23:13 | 40.20616 | -111.73020 | 4809 ft | 105 kts | 183° |
| 2026-04-24 23:13 | 40.20372 | -111.72340 | 4605 ft | 99 kts | 69° |
| 2026-04-24 23:13 | 40.20840 | -111.71895 | 4720 ft | 83 kts | 16° |
| 2026-04-24 23:14 | 40.21395 | -111.71905 | 4893 ft | 76 kts | 2° |
| 2026-04-24 23:14 | 40.21971 | -111.71985 | 4916 ft | 99 kts | 350° |
| 2026-04-24 23:14 | 40.22676 | -111.72053 | 5206 ft | 107 kts | 329° |
| 2026-04-24 23:14 | 40.22832 | -111.72946 | 5201 ft | 135 kts | 224° |
| 2026-04-24 23:15 | 40.21906 | -111.73268 | 5443 ft | 142 kts | 195° |
| 2026-04-24 23:15 | 40.20978 | -111.73420 | 5400 ft | 124 kts | 196° |
| 2026-04-24 23:15 | 40.20185 | -111.73246 | 5210 ft | 123 kts | 134° |
| 2026-04-24 23:15 | 40.20397 | -111.72577 | 4936 ft | 85 kts | 353° |
| 2026-04-24 23:16 | 40.21005 | -111.72484 | 4516 ft | 85 kts | 7° |
| 2026-04-24 23:16 | 40.21487 | -111.72359 | 4494 ft | 58 kts | 10° |
| 2026-04-24 23:16 | 40.21833 | -111.72264 | 4494 ft | 43 kts | 12° |
| 2026-04-24 23:16 | 40.22064 | -111.72193 | 4495 ft | 21 kts | 26° |
| 2026-04-24 23:17 | 40.22024 | -111.72120 | 4496 ft | 28 kts | 154° |
| 2026-04-24 23:17 | 40.21995 | -111.72008 | 4496 ft | 13 kts | 334° |
| 2026-04-24 23:17 | 40.22038 | -111.71994 | 4497 ft | 0 kts | 109° |